Time;durP1;ratioP1;P1;durP2;ratioP2;P2;SDS_P1;SDS_P2;PMS_P1;PMS_P2;Temp;Humidity;BMP_temperature;BMP_pressure;BME280_temperature;BME280_humidity;BME280_pressure;Samples;Min_cycle;Max_cycle;Signal;HPM_P1;HPM_P2
2022/01/26 00:06:37;;;;;;;35.95;22.60;;;3.20;99.90;;;;;;5092213;27;20379;-67
2022/01/26 00:09:04;;;;;;;34.70;22.90;;;3.20;99.90;;;;;;5135091;27;20059;-68
2022/01/26 00:11:33;;;;;;;33.03;22.02;;;3.30;99.90;;;;;;5134369;27;20027;-68
2022/01/26 00:14:01;;;;;;;31.58;22.40;;;3.20;99.90;;;;;;5134594;27;20106;-67
2022/01/26 00:16:37;;;;;;;31.27;22.38;;;3.20;99.90;;;;;;5133961;27;20030;-67
2022/01/26 00:19:06;;;;;;;32.20;22.73;;;3.20;99.90;;;;;;5117122;27;20057;-66
2022/01/26 00:21:48;;;;;;;36.15;22.25;;;3.20;99.90;;;;;;5113089;28;20673;-67
2022/01/26 00:24:37;;;;;;;35.95;22.42;;;3.20;99.90;;;;;;5113276;28;20452;-66
2022/01/26 00:29:36;;;;;;;35.05;23.25;;;3.20;99.90;;;;;;5113355;28;20020;-66
2022/01/26 00:42:58;;;;;;;;;;;3.20;99.90;;;;;;5114371;28;20039;-67
2022/01/26 00:45:32;;;;;;;34.03;22.60;;;3.20;99.90;;;;;;5113192;28;20005;-67
2022/01/26 00:47:58;;;;;;;35.20;23.48;;;3.20;99.90;;;;;;5113702;28;20042;-66
2022/01/26 00:50:23;;;;;;;36.67;23.75;;;3.20;99.90;;;;;;5112884;28;20028;-67
2022/01/26 00:52:53;;;;;;;33.75;22.73;;;3.20;99.90;;;;;;5113732;28;20020;-67
2022/01/26 00:55:20;;;;;;;35.10;23.88;;;3.20;99.90;;;;;;5112417;28;20134;-66
2022/01/26 00:57:46;;;;;;;35.45;24.35;;;3.20;99.90;;;;;;5113158;28;20038;-67
2022/01/26 01:00:22;;;;;;;38.33;25.05;;;3.20;99.90;;;;;;5128190;27;20373;-67
2022/01/26 01:02:49;;;;;;;37.83;24.42;;;3.20;99.90;;;;;;5134074;27;20459;-67
2022/01/26 01:05:22;;;;;;;36.55;25.08;;;3.10;99.90;;;;;;5133065;27;20102;-67
2022/01/26 01:07:51;;;;;;;38.65;25.10;;;3.10;99.90;;;;;;5133648;27;20114;-67
2022/01/26 01:10:20;;;;;;;40.42;24.80;;;3.10;99.90;;;;;;5133019;27;20106;-67
2022/01/26 01:12:48;;;;;;;37.75;24.85;;;3.10;99.90;;;;;;5115697;27;20110;-67
2022/01/26 01:15:14;;;;;;;35.65;24.42;;;3.10;99.90;;;;;;5133522;27;20027;-66
2022/01/26 01:17:46;;;;;;;37.90;24.80;;;3.10;99.90;;;;;;5132830;27;20042;-66
2022/01/26 01:20:31;;;;;;;35.95;24.42;;;3.10;99.90;;;;;;5133640;27;20027;-66
2022/01/26 01:30:45;;;;;;;40.60;26.98;;;3.10;99.90;;;;;;5133146;27;20023;-67
2022/01/26 01:33:17;;;;;;;43.28;25.67;;;3.10;99.90;;;;;;5133232;27;20023;-67
2022/01/26 01:35:44;;;;;;;42.70;27.58;;;3.10;99.90;;;;;;5133268;27;20027;-67
2022/01/26 01:38:15;;;;;;;43.47;28.05;;;3.10;99.90;;;;;;5133003;27;20027;-67
2022/01/26 01:40:44;;;;;;;43.97;26.48;;;3.10;99.90;;;;;;5132526;27;20038;-67
2022/01/26 01:43:11;;;;;;;43.40;27.73;;;3.10;99.90;;;;;;5133355;27;20095;-67
2022/01/26 01:45:44;;;;;;;43.95;27.40;;;3.10;99.90;;;;;;5132343;27;20059;-67
2022/01/26 01:48:16;;;;;;;47.60;29.15;;;3.10;99.90;;;;;;5133276;27;20055;-67
2022/01/26 01:50:42;;;;;;;47.42;29.00;;;3.10;99.90;;;;;;5113881;27;20418;-66
2022/01/26 01:53:10;;;;;;;45.78;29.27;;;3.10;99.90;;;;;;5132872;27;20057;-67
2022/01/26 01:55:42;;;;;;;45.90;27.95;;;3.10;99.90;;;;;;5132271;27;20070;-67
2022/01/26 01:58:09;;;;;;;48.22;28.95;;;3.10;99.90;;;;;;5132929;27;20023;-67
2022/01/26 02:00:36;;;;;;;52.33;30.17;;;3.10;99.90;;;;;;5132292;27;20042;-67
2022/01/26 02:03:02;;;;;;;48.10;29.20;;;3.00;99.90;;;;;;5132509;27;20490;-67
2022/01/26 02:05:28;;;;;;;46.38;27.80;;;3.00;99.90;;;;;;5131797;27;20478;-67
2022/01/26 02:07:54;;;;;;;48.72;27.25;;;3.00;99.90;;;;;;5114267;27;20023;-67
2022/01/26 02:10:22;;;;;;;47.28;28.52;;;3.00;99.90;;;;;;5105903;28;20365;-67
2022/01/26 02:12:52;;;;;;;45.65;29.33;;;3.00;99.90;;;;;;5112059;28;20464;-66
2022/01/26 02:15:26;;;;;;;51.85;29.67;;;3.00;99.90;;;;;;5111679;28;20020;-67
2022/01/26 02:18:17;;;;;;;49.42;29.95;;;3.00;99.90;;;;;;5111421;28;20410;-66
2022/01/26 02:56:44;;;;;;;52.28;29.05;;;2.70;99.90;;;;;;5111337;28;20139;-66
2022/01/26 02:59:33;;;;;;;53.60;28.60;;;2.70;99.90;;;;;;5112046;28;20032;-66
2022/01/26 03:02:06;;;;;;;48.35;27.23;;;2.70;99.90;;;;;;5111153;28;20301;-65
2022/01/26 03:04:42;;;;;;;50.08;29.20;;;2.70;99.90;;;;;;5111075;28;20023;-66
2022/01/26 03:07:22;;;;;;;53.08;29.90;;;2.70;99.90;;;;;;5111579;28;20424;-66
2022/01/26 03:10:15;;;;;;;48.63;27.25;;;2.70;99.90;;;;;;5130943;28;20027;-66
2022/01/26 03:12:59;;;;;;;52.97;28.27;;;2.70;99.90;;;;;;5129794;28;20039;-66
2022/01/26 03:15:57;;;;;;;50.45;27.85;;;2.70;99.90;;;;;;5131701;28;20031;-66
2022/01/26 03:20:40;;;;;;;50.10;29.80;;;2.70;99.90;;;;;;5131501;28;20468;-66
2022/01/26 03:28:42;;;;;;;51.92;28.42;;;2.70;99.90;;;;;;5134184;27;20034;-66
2022/01/26 03:34:10;;;;;;;53.67;29.23;;;2.70;99.90;;;;;;5061633;27;20087;-66
2022/01/26 03:36:46;;;;;;;49.80;28.60;;;2.70;99.90;;;;;;5134974;27;20073;-66
2022/01/26 03:39:15;;;;;;;45.53;27.02;;;2.70;99.90;;;;;;5135688;27;20039;-66
2022/01/26 03:41:45;;;;;;;48.25;27.33;;;2.70;99.90;;;;;;5134484;27;20484;-67
2022/01/26 03:44:11;;;;;;;46.05;27.92;;;2.70;99.90;;;;;;5135575;27;20034;-66
2022/01/26 03:46:37;;;;;;;48.05;27.50;;;2.70;99.90;;;;;;5134768;27;20062;-66
2022/01/26 03:49:05;;;;;;;50.63;28.33;;;2.70;99.90;;;;;;5117112;27;20023;-66
2022/01/26 03:51:31;;;;;;;49.70;27.58;;;2.70;99.90;;;;;;5134734;27;20066;-66
2022/01/26 03:53:57;;;;;;;46.95;27.65;;;2.70;99.90;;;;;;5135465;27;20452;-66
2022/01/26 03:56:22;;;;;;;46.38;27.10;;;2.70;99.90;;;;;;5135336;27;20092;-67
2022/01/26 03:58:48;;;;;;;48.08;27.45;;;2.70;99.90;;;;;;5134463;27;20038;-66
2022/01/26 04:01:13;;;;;;;48.40;27.40;;;2.70;99.90;;;;;;5134784;27;20172;-67
2022/01/26 04:03:39;;;;;;;45.78;26.67;;;2.70;99.90;;;;;;5120215;27;20032;-67
2022/01/26 04:06:05;;;;;;;47.72;27.58;;;2.70;99.90;;;;;;5114758;28;20035;-67
2022/01/26 04:08:33;;;;;;;47.15;27.73;;;2.70;99.90;;;;;;5113879;28;20031;-68
2022/01/26 04:13:42;;;;;;;48.53;28.73;;;2.60;99.90;;;;;;5113757;28;20034;-66
2022/01/26 04:16:09;;;;;;;50.00;28.05;;;2.70;99.90;;;;;;5114348;28;20380;-66
2022/01/26 04:18:38;;;;;;;45.83;28.02;;;2.60;99.90;;;;;;5113573;28;20040;-67
2022/01/26 04:21:15;;;;;;;46.60;27.42;;;2.60;99.90;;;;;;5114115;28;20038;-67
2022/01/26 04:26:07;;;;;;;48.13;27.33;;;2.70;99.90;;;;;;5114072;28;20028;-68
2022/01/26 04:28:42;;;;;;;48.53;28.27;;;2.70;99.90;;;;;;5113464;28;20063;-67
2022/01/26 04:31:09;;;;;;;47.33;28.17;;;2.60;99.90;;;;;;5097454;28;20035;-66
2022/01/26 04:33:35;;;;;;;53.05;27.90;;;2.60;99.90;;;;;;5113360;28;20038;-67
2022/01/26 04:36:04;;;;;;;56.20;27.60;;;2.60;99.90;;;;;;5113878;28;20063;-66
2022/01/26 04:38:39;;;;;;;48.55;28.05;;;2.60;99.90;;;;;;5113256;28;20072;-67
2022/01/26 04:41:27;;;;;;;47.85;27.48;;;2.60;99.90;;;;;;5113988;28;20028;-67
2022/01/26 04:43:57;;;;;;;48.70;27.02;;;2.60;99.90;;;;;;5094941;28;20372;-67
2022/01/26 04:46:26;;;;;;;50.70;28.52;;;2.60;99.90;;;;;;5113752;28;20031;-66
2022/01/26 04:48:52;;;;;;;50.47;27.80;;;2.60;99.90;;;;;;5112892;28;20359;-66
2022/01/26 04:51:17;;;;;;;49.67;27.52;;;2.60;99.90;;;;;;5113211;28;20379;-67
2022/01/26 04:53:43;;;;;;;51.72;28.13;;;2.60;99.90;;;;;;5112778;28;20030;-67
2022/01/26 04:56:09;;;;;;;49.90;27.67;;;2.60;99.90;;;;;;5113443;28;20118;-67
2022/01/26 04:58:34;;;;;;;46.83;27.58;;;2.60;99.90;;;;;;5114690;27;20104;-68
2022/01/26 05:01:00;;;;;;;51.83;27.65;;;2.60;99.90;;;;;;5134175;27;20043;-67
2022/01/26 05:03:25;;;;;;;53.15;29.27;;;2.60;99.90;;;;;;5133989;27;20035;-67
2022/01/26 05:05:51;;;;;;;46.90;27.52;;;2.60;99.90;;;;;;5133001;27;20460;-67
2022/01/26 05:08:17;;;;;;;49.67;29.20;;;2.50;99.90;;;;;;5133901;27;20368;-68
2022/01/26 05:10:44;;;;;;;51.75;27.38;;;2.60;99.90;;;;;;5133130;27;20493;-67
2022/01/26 05:13:13;;;;;;;48.50;28.15;;;2.60;99.90;;;;;;5133909;27;20023;-67
2022/01/26 05:15:39;;;;;;;48.47;27.33;;;2.60;99.90;;;;;;5133324;27;20372;-67
2022/01/26 05:18:06;;;;;;;45.13;27.33;;;2.60;99.90;;;;;;5133347;27;20035;-67
2022/01/26 05:20:32;;;;;;;49.95;27.63;;;2.60;99.90;;;;;;5133810;27;20076;-66
2022/01/26 05:22:58;;;;;;;45.25;25.48;;;2.60;99.90;;;;;;5133160;27;20049;-67
2022/01/26 05:25:24;;;;;;;49.35;28.23;;;2.60;99.90;;;;;;5133740;27;20021;-67
2022/01/26 05:27:50;;;;;;;49.78;28.38;;;2.60;99.90;;;;;;5133016;27;20027;-67
2022/01/26 05:30:16;;;;;;;46.10;26.90;;;2.50;99.90;;;;;;5115196;27;20054;-67
2022/01/26 05:32:41;;;;;;;50.40;27.33;;;2.60;99.90;;;;;;5133094;27;20031;-67
2022/01/26 05:35:07;;;;;;;45.03;27.65;;;2.50;99.90;;;;;;5133622;27;20035;-67
2022/01/26 05:37:33;;;;;;;46.42;27.52;;;2.50;99.90;;;;;;5133509;27;20035;-67
2022/01/26 05:39:59;;;;;;;48.97;28.20;;;2.60;99.90;;;;;;5132995;27;20083;-67
2022/01/26 05:42:25;;;;;;;46.35;27.27;;;2.60;99.90;;;;;;5133482;27;20031;-67
2022/01/26 05:44:52;;;;;;;50.17;27.52;;;2.60;99.90;;;;;;5114477;27;20028;-67
2022/01/26 05:47:20;;;;;;;47.72;26.10;;;2.50;99.90;;;;;;5133308;27;20026;-67
2022/01/26 05:49:46;;;;;;;44.85;26.50;;;2.60;99.90;;;;;;5132192;27;20065;-67
2022/01/26 05:52:12;;;;;;;48.10;27.48;;;2.60;99.90;;;;;;5131888;27;20111;-67
2022/01/26 05:54:38;;;;;;;51.15;26.30;;;2.60;99.90;;;;;;5123004;27;20026;-67
2022/01/26 05:57:04;;;;;;;47.30;26.67;;;2.60;99.90;;;;;;5112358;28;20031;-67
2022/01/26 05:59:32;;;;;;;47.40;26.70;;;2.60;99.90;;;;;;5112555;28;20356;-67
2022/01/26 06:01:58;;;;;;;45.08;26.20;;;2.60;99.90;;;;;;5111965;28;20110;-68
2022/01/26 06:04:24;;;;;;;44.13;26.85;;;2.60;99.90;;;;;;5112359;28;20104;-67
2022/01/26 06:06:49;;;;;;;46.50;25.38;;;2.60;99.90;;;;;;5111761;28;20023;-67
2022/01/26 06:09:15;;;;;;;47.95;25.98;;;2.60;99.90;;;;;;5112416;28;20114;-67
2022/01/26 06:11:41;;;;;;;48.28;27.55;;;2.70;99.90;;;;;;5111599;28;20084;-68
2022/01/26 06:14:06;;;;;;;44.42;25.27;;;2.70;99.90;;;;;;5112708;28;20027;-67
2022/01/26 06:16:32;;;;;;;45.63;26.40;;;2.70;99.90;;;;;;5112546;28;20422;-68
2022/01/26 06:18:57;;;;;;;44.85;26.00;;;2.70;99.90;;;;;;5111354;28;20080;-68
2022/01/26 06:21:23;;;;;;;45.53;25.73;;;2.70;99.90;;;;;;5112239;28;20114;-68
2022/01/26 06:23:49;;;;;;;44.25;25.15;;;2.70;99.90;;;;;;5111450;28;20400;-68
2022/01/26 06:26:14;;;;;;;41.40;24.50;;;2.60;99.90;;;;;;5111851;28;20043;-68
2022/01/26 06:28:40;;;;;;;47.00;25.75;;;2.60;99.90;;;;;;5093142;28;20032;-68
2022/01/26 06:31:11;;;;;;;42.95;25.63;;;2.60;99.90;;;;;;5112116;28;20486;-67
2022/01/26 06:33:39;;;;;;;45.60;25.42;;;2.60;99.90;;;;;;5112408;28;20053;-67
2022/01/26 06:36:05;;;;;;;46.80;25.75;;;2.60;99.90;;;;;;5111753;28;20028;-66
2022/01/26 06:38:31;;;;;;;44.65;25.83;;;2.60;99.90;;;;;;5111844;28;20485;-65
2022/01/26 06:40:58;;;;;;;41.53;24.02;;;2.60;99.90;;;;;;5117886;28;20102;-65
2022/01/26 06:43:27;;;;;;;45.35;25.52;;;2.60;99.90;;;;;;5132410;28;20027;-67
2022/01/26 06:45:59;;;;;;;46.03;24.52;;;2.60;99.90;;;;;;5131812;28;20090;-66
2022/01/26 06:50:51;;;;;;;39.83;23.67;;;2.60;99.90;;;;;;5131620;28;20122;-66
2022/01/26 06:53:17;;;;;;;45.45;24.35;;;2.60;99.90;;;;;;5132090;28;20027;-66
2022/01/26 06:55:42;;;;;;;46.55;26.15;;;2.60;99.90;;;;;;5131762;28;20051;-66
2022/01/26 06:58:08;;;;;;;40.38;24.45;;;2.60;99.90;;;;;;5132675;28;20449;-65
2022/01/26 07:00:34;;;;;;;47.45;24.55;;;2.60;99.90;;;;;;5132414;28;20356;-66
2022/01/26 07:03:00;;;;;;;42.75;24.73;;;2.60;99.90;;;;;;5133853;27;20027;-67
2022/01/26 07:05:26;;;;;;;41.05;24.65;;;2.60;99.90;;;;;;5136141;27;20030;-67
2022/01/26 07:07:51;;;;;;;44.42;24.63;;;2.60;99.90;;;;;;5135785;27;20027;-67
2022/01/26 07:10:17;;;;;;;40.60;24.88;;;2.60;99.90;;;;;;5136059;27;20023;-66
2022/01/26 07:12:43;;;;;;;41.75;23.33;;;2.60;99.90;;;;;;5135674;27;20066;-67
2022/01/26 07:23:22;;;;;;;40.97;24.27;;;2.60;99.90;;;;;;5136013;27;20026;-66
2022/01/26 07:25:48;;;;;;;42.00;23.83;;;2.60;99.90;;;;;;5135272;27;20452;-66
2022/01/26 07:28:14;;;;;;;41.47;23.48;;;2.60;99.90;;;;;;5136119;27;20034;-67
2022/01/26 07:30:40;;;;;;;38.83;22.50;;;2.60;99.90;;;;;;5135963;27;20031;-66
2022/01/26 07:33:06;;;;;;;40.28;21.95;;;2.60;99.90;;;;;;5135076;27;20387;-65
2022/01/26 07:35:33;;;;;;;42.53;23.10;;;2.60;99.90;;;;;;5135765;27;20031;-66
2022/01/26 07:38:02;;;;;;;39.17;22.48;;;2.50;99.90;;;;;;5134877;27;20043;-65
2022/01/26 07:40:28;;;;;;;39.15;22.10;;;2.50;99.90;;;;;;5116994;27;20383;-66
2022/01/26 07:42:54;;;;;;;40.65;22.23;;;2.60;99.90;;;;;;5134889;27;20100;-67
2022/01/26 07:45:21;;;;;;;39.08;21.88;;;2.60;99.90;;;;;;5135264;27;20023;-66
2022/01/26 07:47:47;;;;;;;37.53;21.10;;;2.50;99.90;;;;;;5134512;27;20019;-66
2022/01/26 07:50:15;;;;;;;39.45;22.48;;;2.60;99.90;;;;;;5135273;27;20478;-66
2022/01/26 07:52:42;;;;;;;39.13;21.58;;;2.60;99.90;;;;;;5135323;27;20070;-66
2022/01/26 07:55:14;;;;;;;37.25;21.88;;;2.60;99.90;;;;;;5134424;27;20074;-66
2022/01/26 07:57:40;;;;;;;39.45;22.92;;;2.60;99.90;;;;;;5135324;27;20073;-66
2022/01/26 08:00:07;;;;;;;37.63;22.85;;;2.60;99.90;;;;;;5134447;27;20031;-66
2022/01/26 08:02:32;;;;;;;39.10;21.98;;;2.60;99.90;;;;;;5135166;27;20062;-66
2022/01/26 08:04:58;;;;;;;41.95;22.23;;;2.60;99.90;;;;;;5124982;27;20051;-67
2022/01/26 08:07:24;;;;;;;38.50;22.33;;;2.60;99.90;;;;;;5114450;28;20139;-65
2022/01/26 08:09:49;;;;;;;37.58;21.02;;;2.60;99.90;;;;;;5113771;28;20049;-67
2022/01/26 08:12:15;;;;;;;38.33;21.20;;;2.70;99.90;;;;;;5114260;28;20092;-66
2022/01/26 08:14:42;;;;;;;41.50;21.85;;;2.70;99.90;;;;;;5113159;28;20032;-66
2022/01/26 08:17:08;;;;;;;36.10;21.90;;;2.70;99.90;;;;;;5113489;28;20023;-66
2022/01/26 08:19:35;;;;;;;38.72;22.25;;;2.70;99.90;;;;;;5113919;28;20038;-66
2022/01/26 08:22:01;;;;;;;36.03;20.67;;;2.70;99.90;;;;;;5113412;28;20392;-66
2022/01/26 08:24:28;;;;;;;39.13;21.35;;;2.70;99.90;;;;;;5114007;28;20487;-65
2022/01/26 08:26:58;;;;;;;42.03;22.02;;;2.70;99.90;;;;;;5095206;28;20038;-66
2022/01/26 08:29:31;;;;;;;40.63;21.88;;;2.70;99.90;;;;;;5114152;28;20191;-66
2022/01/26 08:31:56;;;;;;;41.85;23.00;;;2.70;99.90;;;;;;5113471;28;20039;-64
2022/01/26 08:34:22;;;;;;;33.97;19.70;;;2.70;99.90;;;;;;5113658;28;20023;-65
2022/01/26 08:37:06;;;;;;;38.55;22.02;;;2.70;99.90;;;;;;5113942;28;20035;-65
2022/01/26 08:39:32;;;;;;;33.78;20.02;;;2.70;99.90;;;;;;5113969;28;20053;-65
2022/01/26 08:42:02;;;;;;;37.22;21.80;;;2.70;99.90;;;;;;5113303;28;20034;-65
2022/01/26 08:44:28;;;;;;;38.20;21.08;;;2.80;99.90;;;;;;5113995;28;20131;-65
2022/01/26 08:46:54;;;;;;;37.83;20.58;;;2.80;99.90;;;;;;5113077;28;20035;-65
2022/01/26 08:49:21;;;;;;;38.38;20.80;;;2.80;99.90;;;;;;5132378;27;20041;-66
2022/01/26 08:51:51;;;;;;;39.95;21.17;;;2.80;99.90;;;;;;5134005;27;20027;-66
2022/01/26 08:54:20;;;;;;;38.63;19.17;;;2.80;99.90;;;;;;5134063;27;20033;-66
2022/01/26 08:56:49;;;;;;;32.15;19.15;;;2.80;99.90;;;;;;5133999;27;20047;-66
2022/01/26 08:59:15;;;;;;;38.92;20.33;;;2.80;99.90;;;;;;5133595;27;20525;-66
2022/01/26 09:01:41;;;;;;;37.50;20.55;;;2.80;99.90;;;;;;5133664;27;20118;-65
2022/01/26 09:04:07;;;;;;;37.45;20.27;;;2.80;99.90;;;;;;5133319;27;20472;-66
2022/01/26 09:06:56;;;;;;;33.60;18.58;;;2.80;99.90;;;;;;5133898;27;20309;-66
2022/01/26 09:09:27;;;;;;;35.63;19.27;;;2.80;99.90;;;;;;5134001;27;20043;-66
2022/01/26 09:11:55;;;;;;;34.90;19.27;;;2.80;99.90;;;;;;5133138;27;20104;-66
2022/01/26 09:14:24;;;;;;;33.75;18.50;;;2.80;99.90;;;;;;5133906;27;20019;-66
2022/01/26 09:16:52;;;;;;;35.40;19.48;;;2.80;99.90;;;;;;5133641;27;20027;-65
2022/01/26 09:19:28;;;;;;;36.40;18.85;;;2.80;99.90;;;;;;5133552;27;20078;-66
2022/01/26 09:21:59;;;;;;;35.40;18.73;;;2.80;99.90;;;;;;5133128;27;20023;-64
2022/01/26 09:24:29;;;;;;;;;;;2.80;99.90;;;;;;5134090;27;20020;-65
2022/01/26 09:26:55;;;;;;;37.15;18.10;;;2.90;99.90;;;;;;5132665;27;19903;-66
2022/01/26 09:29:21;;;;;;;34.67;17.67;;;2.90;99.90;;;;;;5133396;27;20051;-66
2022/01/26 09:31:47;;;;;;;31.88;17.80;;;2.90;99.90;;;;;;5114962;27;20395;-66
2022/01/26 09:34:18;;;;;;;34.35;18.17;;;2.90;99.90;;;;;;5132428;27;20027;-66
2022/01/26 09:36:44;;;;;;;29.35;17.65;;;2.90;99.90;;;;;;5133315;27;20123;-66
2022/01/26 09:39:11;;;;;;;31.30;17.42;;;2.90;99.90;;;;;;5132324;27;20491;-66
2022/01/26 09:41:38;;;;;;;28.92;16.27;;;2.90;99.90;;;;;;5133304;27;20471;-66
2022/01/26 09:44:05;;;;;;;30.33;16.45;;;2.90;99.90;;;;;;5132728;27;20211;-66
2022/01/26 09:46:31;;;;;;;30.80;16.30;;;2.90;99.90;;;;;;5133220;27;20145;-66
2022/01/26 09:48:58;;;;;;;29.65;16.73;;;2.90;99.90;;;;;;5132199;27;20371;-66
2022/01/26 09:51:23;;;;;;;27.95;16.13;;;2.90;99.90;;;;;;5133216;27;20055;-65
2022/01/26 09:54:09;;;;;;;31.88;16.50;;;2.90;99.90;;;;;;5132882;27;20050;-65
2022/01/26 09:56:35;;;;;;;30.67;16.52;;;2.90;99.90;;;;;;5133187;27;20058;-66
2022/01/26 09:59:01;;;;;;;25.83;16.33;;;2.90;99.90;;;;;;5132460;27;20031;-67
2022/01/26 10:01:27;;;;;;;31.90;16.42;;;2.90;99.90;;;;;;5116069;27;20031;-65
2022/01/26 10:03:53;;;;;;;25.60;15.48;;;2.90;99.90;;;;;;5094023;28;20024;-66
2022/01/26 10:06:28;;;;;;;26.38;15.15;;;2.90;99.90;;;;;;5093301;28;20076;-66
2022/01/26 10:09:13;;;;;;;33.05;16.45;;;2.90;99.90;;;;;;5112213;28;20067;-66
2022/01/26 10:17:27;;;;;;;28.92;14.43;;;2.90;99.90;;;;;;5111597;28;20034;-66
2022/01/26 10:19:58;;;;;;;26.05;13.98;;;2.90;99.90;;;;;;5094140;28;20032;-66
2022/01/26 10:22:24;;;;;;;;;;;2.90;99.90;;;;;;5112751;28;20476;-67
2022/01/26 10:25:00;;;;;;;26.48;14.55;;;2.90;99.90;;;;;;5112158;28;19964;-66
2022/01/26 10:27:41;;;;;;;28.42;15.50;;;2.90;99.90;;;;;;5112537;28;20039;-67
2022/01/26 10:30:09;;;;;;;29.35;14.45;;;2.90;99.90;;;;;;5112121;28;20027;-66
2022/01/26 10:32:36;;;;;;;22.85;13.27;;;2.90;99.90;;;;;;5112439;28;20036;-66
2022/01/26 10:35:05;;;;;;;24.55;13.30;;;3.00;99.90;;;;;;5093494;28;20020;-66
2022/01/26 10:37:32;;;;;;;26.70;14.55;;;3.00;99.90;;;;;;5095287;28;20548;-66
2022/01/26 10:40:14;;;;;;;23.10;14.13;;;3.00;99.90;;;;;;5116413;28;20088;-66
2022/01/26 10:42:40;;;;;;;24.17;13.15;;;3.00;99.90;;;;;;5116285;28;20365;-66
2022/01/26 10:45:13;;;;;;;28.48;14.60;;;3.00;99.90;;;;;;5115575;28;20042;-66
2022/01/26 10:47:45;;;;;;;21.60;12.77;;;3.00;99.80;;;;;;5098119;28;20057;-66
2022/01/26 10:53:11;;;;;;;22.92;12.65;;;3.10;99.20;;;;;;5136769;27;19927;-66
2022/01/26 10:55:38;;;;;;;20.67;12.25;;;3.10;99.00;;;;;;5136567;27;20122;-66
2022/01/26 10:58:07;;;;;;;24.35;13.20;;;3.10;98.70;;;;;;5135987;27;20110;-66
2022/01/26 11:03:22;;;;;;;25.10;13.60;;;3.10;98.60;;;;;;5136068;27;20076;-67
2022/01/26 11:05:48;;;;;;;24.50;13.48;;;3.10;98.30;;;;;;5136454;27;20027;-67
2022/01/26 11:08:16;;;;;;;22.35;13.63;;;3.10;98.10;;;;;;5135606;27;20109;-66
2022/01/26 11:10:45;;;;;;;23.58;12.75;;;3.10;98.00;;;;;;5136251;27;20466;-66
2022/01/26 11:13:22;;;;;;;23.95;12.98;;;3.10;98.00;;;;;;5135704;27;20499;-66
2022/01/26 11:15:47;;;;;;;23.58;12.63;;;3.10;98.10;;;;;;5135824;27;20499;-66
2022/01/26 11:18:21;;;;;;;22.20;12.75;;;3.20;98.00;;;;;;5135277;27;20119;-66
2022/01/26 11:20:52;;;;;;;20.95;12.57;;;3.10;97.60;;;;;;5135890;27;20361;-66
2022/01/26 11:23:19;;;;;;;22.75;12.52;;;3.10;97.80;;;;;;5135268;27;20524;-66
2022/01/26 11:25:49;;;;;;;24.70;13.45;;;3.10;97.70;;;;;;5136122;27;20027;-66
2022/01/26 11:28:19;;;;;;;24.35;12.80;;;3.10;97.90;;;;;;5135352;27;20031;-66
2022/01/26 11:30:45;;;;;;;21.52;12.10;;;3.10;97.70;;;;;;5135969;27;20106;-66
2022/01/26 11:33:20;;;;;;;20.95;12.60;;;3.20;97.90;;;;;;5135479;27;20027;-66
2022/01/26 11:35:48;;;;;;;24.02;12.27;;;3.20;97.70;;;;;;5117634;27;20049;-66
2022/01/26 11:46:52;;;;;;;20.58;11.63;;;3.20;96.80;;;;;;5135840;27;20525;-66
2022/01/26 11:49:23;;;;;;;22.90;11.65;;;3.20;96.70;;;;;;5135107;27;20111;-66
2022/01/26 11:51:55;;;;;;;19.10;11.95;;;3.20;96.80;;;;;;5135437;27;20031;-66
2022/01/26 11:54:26;;;;;;;20.02;11.98;;;3.20;96.80;;;;;;5134864;27;20110;-66
2022/01/26 11:57:05;;;;;;;24.08;12.98;;;3.20;96.90;;;;;;5135432;27;20385;-66
2022/01/26 11:59:33;;;;;;;21.30;12.50;;;3.30;97.10;;;;;;5135675;27;20375;-66
2022/01/26 12:02:08;;;;;;;19.98;12.15;;;3.30;97.20;;;;;;5135290;27;20103;-66
2022/01/26 12:04:37;;;;;;;22.40;12.93;;;3.30;97.00;;;;;;5134492;27;20442;-66
2022/01/26 12:07:19;;;;;;;20.92;12.60;;;3.40;96.60;;;;;;5135363;27;20022;-66
2022/01/26 12:09:45;;;;;;;22.85;12.77;;;3.40;96.60;;;;;;5134248;27;20063;-66
2022/01/26 12:12:22;;;;;;;23.13;11.02;;;3.50;96.60;;;;;;5116466;27;20097;-65
2022/01/26 12:14:58;;;;;;;20.02;12.07;;;3.40;96.20;;;;;;5114735;28;20098;-65
2022/01/26 12:17:31;;;;;;;19.08;11.73;;;3.40;95.60;;;;;;5113519;28;20084;-65
2022/01/26 12:32:01;;;;;;;20.52;11.98;;;3.40;95.50;;;;;;5114543;28;20028;-66
2022/01/26 12:37:11;;;;;;;22.20;11.95;;;3.50;95.60;;;;;;5114162;28;20034;-67
2022/01/26 12:45:34;;;;;;;22.52;12.52;;;3.40;95.20;;;;;;5113571;28;20047;-66
2022/01/26 12:48:00;;;;;;;21.50;12.48;;;3.40;95.20;;;;;;5113638;28;20115;-65
2022/01/26 12:50:26;;;;;;;21.55;12.45;;;3.40;95.30;;;;;;5113129;28;20110;-66
2022/01/26 12:52:55;;;;;;;19.58;12.32;;;3.40;95.40;;;;;;5113708;28;20456;-66
2022/01/26 12:55:29;;;;;;;21.70;12.45;;;3.40;95.50;;;;;;5116694;27;20050;-66
2022/01/26 12:57:55;;;;;;;23.88;12.45;;;3.40;95.50;;;;;;5113655;28;20080;-66
2022/01/26 13:00:24;;;;;;;24.33;13.57;;;3.40;95.60;;;;;;5112523;28;20167;-66
2022/01/26 13:02:51;;;;;;;25.92;14.15;;;3.40;95.00;;;;;;5094889;28;20468;-66
2022/01/26 13:05:26;;;;;;;24.27;13.18;;;3.40;95.00;;;;;;5112957;28;20073;-66
2022/01/26 13:08:05;;;;;;;29.50;15.32;;;3.40;95.10;;;;;;5113648;28;20024;-66
2022/01/26 13:10:32;;;;;;;27.55;14.95;;;3.30;95.20;;;;;;5112737;28;20027;-66
2022/01/26 13:13:11;;;;;;;30.20;14.23;;;3.30;95.60;;;;;;5113685;28;20081;-66
2022/01/26 13:15:50;;;;;;;24.33;14.23;;;3.30;95.90;;;;;;5113537;28;20020;-66
2022/01/26 13:24:25;;;;;;;23.67;14.48;;;3.20;96.20;;;;;;5113419;28;20027;-66
2022/01/26 13:27:22;;;;;;;22.60;13.85;;;3.20;96.30;;;;;;5113321;28;20016;-66
2022/01/26 13:30:12;;;;;;;21.30;13.50;;;3.20;96.40;;;;;;5112305;28;20460;-66
2022/01/26 13:33:32;;;;;;;24.92;14.70;;;3.20;96.40;;;;;;5112430;28;20126;-66
2022/01/26 13:38:08;;;;;;;26.10;14.45;;;3.20;96.50;;;;;;5113180;28;20164;-66
2022/01/26 13:40:59;;;;;;;27.88;14.32;;;3.20;96.50;;;;;;5112361;28;20031;-66
2022/01/26 14:02:08;;;;;;;27.20;12.90;;;3.20;95.20;;;;;;5109262;28;20039;-66
2022/01/26 14:04:34;;;;;;;20.77;12.63;;;3.20;95.20;;;;;;5111699;28;20100;-66
2022/01/26 14:07:00;;;;;;;21.08;12.65;;;3.20;95.10;;;;;;5114930;27;20032;-66
2022/01/26 14:09:25;;;;;;;21.85;12.45;;;3.20;95.20;;;;;;5112281;28;20391;-65
2022/01/26 14:11:52;;;;;;;16.60;11.75;;;3.20;95.00;;;;;;5111227;28;20020;-65
2022/01/26 14:14:54;;;;;;;22.45;11.55;;;3.20;94.60;;;;;;5111798;28;20028;-64
2022/01/26 14:17:23;;;;;;;16.90;10.43;;;3.20;94.50;;;;;;5107987;28;20031;-65
2022/01/26 14:22:39;;;;;;;19.27;10.13;;;3.30;93.60;;;;;;5111813;28;20019;-65
2022/01/26 14:27:46;;;;;;;16.90;11.50;;;3.30;93.20;;;;;;5112501;28;20107;-66
2022/01/26 14:30:24;;;;;;;20.25;11.63;;;3.30;93.10;;;;;;5112366;28;20028;-66
2022/01/26 14:35:49;;;;;;;21.00;11.82;;;3.30;93.00;;;;;;5111702;28;20057;-65
2022/01/26 14:54:50;;;;;;;20.67;12.48;;;3.30;93.80;;;;;;5110984;28;20038;-66
2022/01/26 15:43:46;;;;;;;27.42;15.82;;;3.30;96.60;;;;;;5135655;27;20027;-65
2022/01/26 15:48:52;;;;;;;26.17;15.52;;;3.30;97.10;;;;;;5134704;27;20043;-66
2022/01/26 15:51:46;;;;;;;28.73;16.45;;;3.30;97.30;;;;;;5135513;27;20019;-66
2022/01/26 16:07:40;;;;;;;27.30;16.90;;;3.30;97.70;;;;;;5116683;27;20028;-66
2022/01/26 16:26:32;;;;;;;26.27;16.88;;;3.30;97.90;;;;;;5114456;28;20034;-67
2022/01/26 18:16:42;;;;;;;28.17;16.40;;;3.40;97.10;;;;;;5112501;28;20024;-67
2022/01/26 18:33:07;;;;;;;26.85;15.52;;;3.40;97.10;;;;;;5111872;28;20077;-66
2022/01/26 18:49:10;;;;;;;29.90;16.40;;;3.40;96.60;;;;;;5112253;28;20020;-67
2022/01/26 18:51:40;;;;;;;28.38;15.65;;;3.30;96.50;;;;;;5111683;28;20024;-65
2022/01/26 18:54:08;;;;;;;27.73;16.13;;;3.40;96.40;;;;;;5112184;28;20104;-65
2022/01/26 18:56:35;;;;;;;29.80;16.50;;;3.40;96.40;;;;;;5112420;28;20425;-67
2022/01/26 18:59:01;;;;;;;31.83;17.20;;;3.40;96.40;;;;;;5114339;28;20114;-66
2022/01/26 19:01:27;;;;;;;32.20;17.48;;;3.40;96.40;;;;;;5116342;28;20364;-66
2022/01/26 19:03:53;;;;;;;27.02;16.45;;;3.40;96.50;;;;;;5115387;28;20020;-66
2022/01/26 19:06:19;;;;;;;28.40;17.00;;;3.30;96.50;;;;;;5116165;28;20103;-66
2022/01/26 19:08:45;;;;;;;27.80;16.77;;;3.40;96.60;;;;;;5115564;28;20027;-66
2022/01/26 19:11:11;;;;;;;30.80;17.55;;;3.40;96.50;;;;;;5116151;28;20024;-66
2022/01/26 19:13:41;;;;;;;27.00;17.23;;;3.30;96.40;;;;;;5115468;28;20030;-66
2022/01/26 19:16:18;;;;;;;28.67;16.58;;;3.40;96.60;;;;;;5116120;28;20066;-66
2022/01/26 19:24:45;;;;;;;30.83;16.88;;;3.40;96.30;;;;;;5136009;27;20019;-66
2022/01/26 19:26:42;;;;;;;29.02;15.98;;;3.30;96.20;;;;;;5121472;27;20090;-67
2022/01/26 19:29:24;;;;;;;33.47;17.77;;;3.30;96.30;;;;;;5136535;27;20364;-66
2022/01/26 19:52:57;;;;;;;38.38;19.20;;;3.30;95.70;;;;;;5134079;27;20030;-66